createdAt,value
2023-05-17T00:00:34.298Z,0.00
2023-05-17T00:01:34.307Z,0.00
2023-05-17T00:02:34.393Z,0.00
2023-05-17T00:03:34.335Z,0.00
2023-05-17T00:04:34.375Z,0.00
2023-05-17T00:05:34.370Z,0.00
2023-05-17T00:06:34.436Z,0.00
2023-05-17T00:07:34.391Z,0.00
2023-05-17T00:08:34.396Z,0.00
2023-05-17T00:09:34.413Z,0.00
2023-05-17T00:10:34.428Z,0.00
2023-05-17T00:11:34.441Z,0.00
2023-05-17T00:12:34.456Z,0.00
2023-05-17T00:13:34.489Z,0.00
2023-05-17T00:14:34.480Z,0.00
2023-05-17T00:15:34.489Z,0.00
2023-05-17T00:16:34.506Z,0.00
2023-05-17T00:17:34.575Z,0.00
2023-05-17T00:18:34.668Z,0.00
2023-05-17T00:19:34.631Z,0.00
2023-05-17T00:20:34.561Z,0.00
2023-05-17T00:21:34.569Z,0.00
2023-05-17T00:22:34.582Z,0.00
2023-05-17T00:23:34.605Z,0.00
2023-05-17T00:24:34.607Z,0.00
2023-05-17T00:25:34.622Z,0.00
2023-05-17T00:26:34.641Z,0.00
2023-05-17T00:27:34.647Z,0.00
2023-05-17T00:28:34.658Z,0.00
2023-05-17T00:29:34.674Z,0.00
2023-05-17T00:30:34.686Z,0.00
2023-05-17T00:31:34.699Z,0.00
2023-05-17T00:32:34.774Z,0.00
2023-05-17T00:33:34.727Z,0.00
2023-05-17T00:34:34.823Z,0.00
2023-05-17T00:35:34.764Z,0.00
2023-05-17T00:36:34.768Z,0.00
2023-05-17T00:37:34.779Z,0.00
2023-05-17T00:38:34.797Z,0.00
2023-05-17T00:39:34.802Z,0.00
2023-05-17T00:40:34.816Z,0.00
2023-05-17T00:41:34.828Z,0.00
2023-05-17T00:42:34.844Z,0.00
2023-05-17T00:43:34.857Z,0.00
2023-05-17T00:44:34.874Z,0.00
2023-05-17T00:45:34.887Z,0.00
2023-05-17T00:46:34.903Z,0.00
2023-05-17T00:47:34.971Z,0.00
2023-05-17T00:48:35.030Z,0.00
2023-05-17T00:49:34.938Z,0.00
2023-05-17T00:50:34.953Z,0.00
2023-05-17T00:51:34.959Z,0.00
2023-05-17T00:52:34.993Z,0.00
2023-05-17T00:53:34.988Z,0.00
2023-05-17T00:54:35.002Z,0.00
2023-05-17T00:55:35.009Z,0.00
2023-05-17T00:56:35.034Z,0.00
2023-05-17T00:57:35.041Z,0.00
2023-05-17T00:58:35.048Z,0.00
2023-05-17T00:59:35.070Z,0.00
2023-05-17T01:00:35.070Z,0.00
2023-05-17T01:01:35.086Z,0.00
2023-05-17T01:02:35.160Z,0.00
2023-05-17T01:03:35.247Z,0.00
2023-05-17T01:04:35.154Z,0.00
2023-05-17T01:05:35.135Z,0.00
2023-05-17T01:06:35.152Z,0.00
2023-05-17T01:07:35.169Z,0.00
2023-05-17T01:08:35.175Z,0.00
2023-05-17T01:09:35.189Z,0.00
2023-05-17T01:10:35.212Z,0.00
2023-05-17T01:11:35.218Z,0.00
2023-05-17T01:12:35.226Z,0.00
2023-05-17T01:13:35.239Z,0.00
2023-05-17T01:14:35.253Z,0.00
2023-05-17T01:15:35.265Z,0.00
2023-05-17T01:16:35.284Z,0.00
2023-05-17T01:17:35.391Z,0.00
2023-05-17T01:18:35.435Z,0.00
2023-05-17T01:19:35.383Z,0.00
2023-05-17T01:20:35.465Z,0.00
2023-05-17T01:21:35.346Z,0.00
2023-05-17T01:22:35.354Z,0.00
2023-05-17T01:23:35.368Z,0.00
2023-05-17T01:24:35.384Z,0.00
2023-05-17T01:25:35.390Z,0.00
2023-05-17T01:26:35.405Z,0.00
2023-05-17T01:27:35.428Z,0.00
2023-05-17T01:28:35.431Z,0.00
2023-05-17T01:29:35.445Z,0.00
2023-05-17T01:30:35.455Z,0.00
2023-05-17T01:31:35.466Z,0.00
2023-05-17T01:32:35.529Z,0.00
2023-05-17T01:33:35.547Z,0.00
2023-05-17T01:34:35.508Z,0.00
2023-05-17T01:35:35.521Z,0.00
2023-05-17T01:36:35.533Z,0.00
2023-05-17T01:37:35.544Z,0.00
2023-05-17T01:38:35.557Z,0.00
2023-05-17T01:39:35.567Z,0.00
2023-05-17T01:40:35.580Z,0.00
2023-05-17T01:41:35.617Z,0.00
2023-05-17T01:42:35.604Z,0.00
2023-05-17T01:43:35.624Z,0.00
2023-05-17T01:44:35.634Z,0.00
2023-05-17T01:45:35.670Z,0.00
2023-05-17T01:46:35.658Z,0.00
2023-05-17T01:47:35.715Z,0.00
2023-05-17T01:48:35.728Z,0.00
2023-05-17T01:49:35.698Z,0.00
2023-05-17T01:50:35.709Z,0.00
2023-05-17T01:51:35.736Z,0.00
2023-05-17T01:52:35.734Z,0.00
2023-05-17T01:53:35.748Z,0.00
2023-05-17T01:54:35.757Z,0.00
2023-05-17T01:55:35.769Z,0.00
2023-05-17T01:56:35.803Z,0.00
2023-05-17T01:57:35.814Z,0.00
2023-05-17T01:58:35.818Z,0.00
2023-05-17T01:59:35.823Z,0.00
2023-05-17T02:00:35.843Z,0.00
2023-05-17T02:01:35.846Z,0.00
2023-05-17T02:02:35.885Z,0.00
2023-05-17T02:03:35.900Z,0.00
2023-05-17T02:04:35.917Z,0.00
2023-05-17T02:05:35.896Z,0.00
2023-05-17T02:06:35.911Z,0.00
2023-05-17T02:07:35.924Z,0.00
2023-05-17T02:08:35.936Z,0.00
2023-05-17T02:09:35.948Z,0.00
2023-05-17T02:10:35.970Z,0.00
2023-05-17T02:11:35.973Z,0.00
2023-05-17T02:12:35.985Z,0.00
2023-05-17T02:13:36.011Z,0.00
2023-05-17T02:14:36.011Z,0.00
2023-05-17T02:15:36.048Z,0.00
2023-05-17T02:16:36.037Z,0.00
2023-05-17T02:17:36.114Z,0.00
2023-05-17T02:18:36.175Z,0.00
2023-05-17T02:19:36.134Z,0.00
2023-05-17T02:20:36.102Z,0.00
2023-05-17T02:21:36.098Z,0.00
2023-05-17T02:22:36.122Z,0.00
2023-05-17T02:23:36.142Z,0.00
2023-05-17T02:24:36.152Z,0.00
2023-05-17T02:25:36.159Z,0.00
2023-05-17T02:26:36.165Z,0.00
2023-05-17T02:27:36.183Z,0.00
2023-05-17T02:28:36.196Z,4.00
2023-05-17T02:29:36.216Z,4.00
2023-05-17T02:30:36.233Z,4.00
2023-05-17T02:31:36.228Z,4.00
2023-05-17T02:32:36.340Z,4.00
2023-05-17T02:33:36.348Z,0.00
2023-05-17T02:34:36.265Z,4.00
2023-05-17T02:35:36.282Z,4.00
2023-05-17T02:36:36.291Z,4.00
2023-05-17T02:37:36.317Z,8.00
2023-05-17T02:38:36.318Z,4.00
2023-05-17T02:39:36.332Z,4.00
2023-05-17T02:40:36.343Z,8.00
2023-05-17T02:41:36.355Z,4.00
2023-05-17T02:42:36.373Z,8.00
2023-05-17T02:43:36.383Z,8.00
2023-05-17T02:44:36.403Z,12.00
2023-05-17T02:45:36.403Z,12.00
2023-05-17T02:46:38.325Z,12.00
2023-05-17T02:47:36.550Z,12.00
2023-05-17T02:48:36.446Z,16.00
2023-05-17T02:49:36.458Z,16.00
2023-05-17T02:50:36.479Z,20.00
2023-05-17T02:51:36.482Z,24.00
2023-05-17T02:52:36.507Z,28.00
2023-05-17T02:53:36.512Z,32.00
2023-05-17T02:54:36.524Z,36.00
2023-05-17T02:55:36.535Z,36.00
2023-05-17T02:56:36.550Z,44.00
2023-05-17T02:57:36.564Z,48.00
2023-05-17T02:58:36.571Z,48.00
2023-05-17T02:59:36.590Z,52.00
2023-05-17T03:00:36.597Z,60.00
2023-05-17T03:01:36.616Z,64.00
2023-05-17T03:02:36.775Z,68.00
2023-05-17T03:03:36.723Z,80.00
2023-05-17T03:04:36.772Z,88.00
2023-05-17T03:05:36.663Z,96.00
2023-05-17T03:06:36.680Z,108.00
2023-05-17T03:07:36.697Z,128.00
2023-05-17T03:08:36.707Z,140.00
2023-05-17T03:09:36.718Z,160.00
2023-05-17T03:10:36.731Z,172.00
2023-05-17T03:11:36.744Z,188.00
2023-05-17T03:12:36.759Z,204.00
2023-05-17T03:13:36.776Z,224.00
2023-05-17T03:14:36.783Z,248.00
2023-05-17T03:15:36.803Z,268.00
2023-05-17T03:16:36.812Z,292.00
2023-05-17T03:17:36.991Z,316.00
2023-05-17T03:18:36.970Z,344.00
2023-05-17T03:19:36.917Z,376.00
2023-05-17T03:20:36.868Z,400.00
2023-05-17T03:21:36.882Z,420.00
2023-05-17T03:22:36.895Z,448.00
2023-05-17T03:23:36.970Z,468.00
2023-05-17T03:24:36.919Z,480.00
2023-05-17T03:25:36.930Z,500.00
2023-05-17T03:26:36.947Z,524.00
2023-05-17T03:27:37.027Z,540.00
2023-05-17T03:28:36.985Z,568.00
2023-05-17T03:29:36.986Z,588.00
2023-05-17T03:30:37.059Z,616.00
2023-05-17T03:31:37.009Z,652.00
2023-05-17T03:32:37.097Z,684.00
2023-05-17T03:33:37.172Z,716.00
2023-05-17T03:34:37.052Z,748.00
2023-05-17T03:35:37.066Z,792.00
2023-05-17T03:36:37.079Z,840.00
2023-05-17T03:37:37.097Z,916.00
2023-05-17T03:38:37.114Z,992.00
2023-05-17T03:39:37.124Z,1044.00
2023-05-17T03:40:37.136Z,1104.00
2023-05-17T03:41:37.166Z,1184.00
2023-05-17T03:42:37.160Z,1228.00
2023-05-17T03:43:37.179Z,1288.00
2023-05-17T03:44:37.189Z,1388.00
2023-05-17T03:45:37.218Z,1500.00
2023-05-17T03:46:37.231Z,1612.00
2023-05-17T03:47:37.239Z,1700.00
2023-05-17T03:48:37.283Z,1696.00
2023-05-17T03:49:37.272Z,1680.00
2023-05-17T03:50:37.270Z,1640.00
2023-05-17T03:51:37.286Z,1600.00
2023-05-17T03:52:37.301Z,1608.00
2023-05-17T03:53:37.312Z,1664.00
2023-05-17T03:54:37.329Z,1700.00
2023-05-17T03:55:37.427Z,1704.00
2023-05-17T03:56:37.354Z,1740.00
2023-05-17T03:57:37.364Z,1796.00
2023-05-17T03:58:37.380Z,1868.00
2023-05-17T03:59:37.395Z,1916.00
2023-05-17T04:00:37.419Z,1960.00
2023-05-17T04:01:37.424Z,2036.00
2023-05-17T04:02:37.477Z,2120.00
2023-05-17T04:03:37.522Z,2216.00
2023-05-17T04:04:37.487Z,2288.00
2023-05-17T04:05:37.479Z,2340.00
2023-05-17T04:06:37.492Z,2408.00
2023-05-17T04:07:37.509Z,2472.00
2023-05-17T04:08:37.527Z,2564.00
2023-05-17T04:09:37.528Z,2724.00
2023-05-17T04:10:37.545Z,3036.00
2023-05-17T04:11:37.557Z,3572.00
2023-05-17T04:12:37.570Z,3916.00
2023-05-17T04:13:37.591Z,3876.00
2023-05-17T04:14:37.598Z,3748.00
2023-05-17T04:15:37.621Z,3616.00
2023-05-17T04:16:37.626Z,3496.00
2023-05-17T04:17:37.712Z,3344.00
2023-05-17T04:18:37.788Z,3136.00
2023-05-17T04:19:37.711Z,2912.00
2023-05-17T04:20:37.691Z,2852.00
2023-05-17T04:21:37.691Z,2808.00
2023-05-17T04:22:37.705Z,2824.00
2023-05-17T04:23:37.718Z,2808.00
2023-05-17T04:24:37.732Z,2856.00
2023-05-17T04:25:37.746Z,2912.00
2023-05-17T04:26:37.760Z,3004.00
2023-05-17T04:27:37.775Z,3124.00
2023-05-17T04:28:37.787Z,3280.00
2023-05-17T04:29:37.804Z,3324.00
2023-05-17T04:30:37.821Z,3364.00
2023-05-17T04:31:37.826Z,3408.00
2023-05-17T04:32:37.852Z,3480.00
2023-05-17T04:33:37.917Z,3540.00
2023-05-17T04:34:37.919Z,3612.00
2023-05-17T04:35:37.881Z,3672.00
2023-05-17T04:36:37.901Z,3744.00
2023-05-17T04:37:37.909Z,3764.00
2023-05-17T04:38:37.936Z,3796.00
2023-05-17T04:39:37.938Z,3836.00
2023-05-17T04:40:37.957Z,3848.00
2023-05-17T04:41:37.968Z,3892.00
2023-05-17T04:42:37.976Z,3948.00
2023-05-17T04:43:37.987Z,3960.00
2023-05-17T04:44:38.005Z,3992.00
2023-05-17T04:45:38.025Z,4036.00
2023-05-17T04:46:38.043Z,4068.00
2023-05-17T04:47:38.089Z,4140.00
2023-05-17T04:48:38.085Z,4136.00
2023-05-17T04:49:38.107Z,4192.00
2023-05-17T04:50:38.089Z,4204.00
2023-05-17T04:51:38.110Z,4256.00
2023-05-17T04:52:38.138Z,4348.00
2023-05-17T04:53:38.133Z,4416.00
2023-05-17T04:54:38.142Z,4524.00
2023-05-17T04:55:38.153Z,4604.00
2023-05-17T04:56:38.171Z,4564.00
2023-05-17T04:57:38.190Z,4544.00
2023-05-17T04:58:38.194Z,4560.00
2023-05-17T04:59:38.206Z,4604.00
2023-05-17T05:00:38.220Z,4708.00
2023-05-17T05:01:38.234Z,4704.00
2023-05-17T05:02:38.279Z,4688.00
2023-05-17T05:03:38.324Z,4736.00
2023-05-17T05:04:38.302Z,4784.00
2023-05-17T05:05:38.282Z,4864.00
2023-05-17T05:06:38.297Z,5028.00
2023-05-17T05:07:38.312Z,6088.00
2023-05-17T05:08:38.327Z,5416.00
2023-05-17T05:09:38.339Z,5240.00
2023-05-17T05:10:38.353Z,5164.00
2023-05-17T05:11:38.366Z,5196.00
2023-05-17T05:12:38.379Z,5520.00
2023-05-17T05:13:38.401Z,6388.00
2023-05-17T05:14:38.405Z,6712.00
2023-05-17T05:15:38.420Z,6324.00
2023-05-17T05:16:38.435Z,5712.00
2023-05-17T05:17:38.508Z,5508.00
2023-05-17T05:18:38.630Z,5480.00
2023-05-17T05:19:38.503Z,5576.00
2023-05-17T05:20:38.489Z,6272.00
2023-05-17T05:21:38.500Z,7748.00
2023-05-17T05:22:38.516Z,9976.00
2023-05-17T05:23:38.526Z,12700.00
2023-05-17T05:24:38.540Z,13924.00
2023-05-17T05:25:38.564Z,11740.00
2023-05-17T05:26:38.570Z,12692.00
2023-05-17T05:27:38.581Z,12808.00
2023-05-17T05:28:38.601Z,15020.00
2023-05-17T05:29:38.610Z,18528.00
2023-05-17T05:30:38.630Z,7632.00
2023-05-17T05:31:38.633Z,21600.00
2023-05-17T05:32:38.761Z,19136.00
2023-05-17T05:33:38.724Z,10956.00
2023-05-17T05:34:38.685Z,9540.00
2023-05-17T05:35:38.694Z,8392.00
2023-05-17T05:36:38.715Z,9956.00
2023-05-17T05:37:38.728Z,9948.00
2023-05-17T05:38:38.745Z,10680.00
2023-05-17T05:39:38.756Z,12292.00
2023-05-17T05:40:38.771Z,9992.00
2023-05-17T05:41:38.784Z,8600.00
2023-05-17T05:42:38.803Z,9504.00
2023-05-17T05:43:38.816Z,12584.00
2023-05-17T05:44:38.826Z,8512.00
2023-05-17T05:45:38.843Z,11404.00
2023-05-17T05:46:38.867Z,11196.00
2023-05-17T05:47:38.904Z,7868.00
2023-05-17T05:48:38.940Z,9796.00
2023-05-17T05:49:38.912Z,9620.00
2023-05-17T05:50:38.942Z,8764.00
2023-05-17T05:51:38.938Z,10448.00
2023-05-17T05:52:38.949Z,13288.00
2023-05-17T05:53:38.966Z,15436.00
2023-05-17T05:54:38.979Z,16096.00
2023-05-17T05:55:38.994Z,14088.00
2023-05-17T05:56:39.011Z,10236.00
2023-05-17T05:57:39.022Z,12440.00
2023-05-17T05:58:39.052Z,10828.00
2023-05-17T05:59:39.061Z,9648.00
2023-05-17T06:00:39.077Z,7292.00
2023-05-17T06:01:39.091Z,9120.00
2023-05-17T06:02:39.117Z,13448.00
2023-05-17T06:03:39.116Z,13300.00
2023-05-17T06:04:45.260Z,15400.00
2023-05-17T06:05:39.244Z,15528.00
2023-05-17T06:06:39.422Z,14128.00
2023-05-17T06:07:39.181Z,15492.00
2023-05-17T06:08:39.198Z,13872.00
2023-05-17T06:09:39.213Z,11600.00
2023-05-17T06:10:39.226Z,11020.00
2023-05-17T06:11:39.258Z,10800.00
2023-05-17T06:12:39.265Z,9776.00
2023-05-17T06:13:39.276Z,10380.00
2023-05-17T06:14:39.300Z,13168.00
2023-05-17T06:15:39.317Z,14456.00
2023-05-17T06:16:39.325Z,14500.00
2023-05-17T06:17:39.347Z,12312.00
2023-05-17T06:18:39.413Z,14056.00
2023-05-17T06:19:39.523Z,22848.00
2023-05-17T06:20:39.402Z,16416.00
2023-05-17T06:21:39.403Z,17504.00
2023-05-17T06:22:39.420Z,17088.00
2023-05-17T06:23:39.437Z,12852.00
2023-05-17T06:24:39.454Z,13392.00
2023-05-17T06:25:39.467Z,11812.00
2023-05-17T06:26:39.483Z,42816.00
2023-05-17T06:27:39.505Z,11172.00
2023-05-17T06:28:39.519Z,27200.00
2023-05-17T06:29:39.532Z,28928.00
2023-05-17T06:30:39.558Z,23456.00
2023-05-17T06:31:39.566Z,20224.00
2023-05-17T06:32:39.616Z,20128.00
2023-05-17T06:33:39.652Z,28544.00
2023-05-17T06:34:39.614Z,18048.00
2023-05-17T06:35:54.676Z,17376.00
2023-05-17T06:36:40.770Z,19552.00
2023-05-17T06:37:39.736Z,13876.00
2023-05-17T06:38:39.681Z,12480.00
2023-05-17T06:39:40.056Z,12708.00
2023-05-17T06:40:39.714Z,12800.00
2023-05-17T06:41:39.735Z,13228.00
2023-05-17T06:42:39.776Z,14216.00
2023-05-17T06:43:39.768Z,14636.00
2023-05-17T06:44:39.784Z,18208.00
2023-05-17T06:45:39.803Z,12528.00
2023-05-17T06:46:39.821Z,13656.00
2023-05-17T06:47:39.895Z,11764.00
2023-05-17T06:48:40.009Z,12264.00
2023-05-17T06:49:39.869Z,21632.00
2023-05-17T06:50:39.891Z,14116.00
2023-05-17T06:51:39.911Z,14036.00
2023-05-17T06:52:39.935Z,17312.00
2023-05-17T06:53:39.947Z,13668.00
2023-05-17T06:54:39.979Z,13948.00
2023-05-17T06:55:39.978Z,16480.00
2023-05-17T06:56:39.994Z,19264.00
2023-05-17T06:57:40.027Z,16576.00
2023-05-17T06:58:40.035Z,19136.00
2023-05-17T06:59:40.046Z,16192.00
2023-05-17T07:00:40.061Z,18464.00
2023-05-17T07:01:40.088Z,41760.00
2023-05-17T07:02:40.186Z,20704.00
2023-05-17T07:03:40.199Z,38016.00
2023-05-17T07:04:40.159Z,16124.00
2023-05-17T07:05:40.153Z,9992.00
2023-05-17T07:06:40.179Z,29088.00
2023-05-17T07:07:40.185Z,36160.00
2023-05-17T07:08:40.222Z,35936.00
2023-05-17T07:09:40.228Z,36384.00
2023-05-17T07:10:40.241Z,36960.00
2023-05-17T07:11:40.259Z,38880.00
2023-05-17T07:12:40.279Z,41856.00
2023-05-17T07:13:40.298Z,34208.00
2023-05-17T07:14:40.330Z,19488.00
2023-05-17T07:15:40.335Z,16056.00
2023-05-17T07:16:40.362Z,39392.00
2023-05-17T07:17:40.414Z,25792.00
2023-05-17T07:18:40.458Z,35136.00
2023-05-17T07:19:40.453Z,39904.00
2023-05-17T07:20:40.439Z,39840.00
2023-05-17T07:21:40.454Z,38272.00
2023-05-17T07:22:40.483Z,40000.00
2023-05-17T07:23:40.507Z,42752.00
2023-05-17T07:24:40.519Z,34944.00
2023-05-17T07:25:40.542Z,42240.00
2023-05-17T07:26:40.556Z,42944.00
2023-05-17T07:27:40.576Z,43712.00
2023-05-17T07:28:40.600Z,14164.00
2023-05-17T07:29:40.623Z,35296.00
2023-05-17T07:30:40.652Z,44480.00
2023-05-17T07:31:41.011Z,44256.00
2023-05-17T07:32:40.746Z,19584.00
2023-05-17T07:33:40.715Z,35584.00
2023-05-17T07:34:40.753Z,46784.00
2023-05-17T07:35:40.743Z,33312.00
2023-05-17T07:36:40.805Z,48640.00
2023-05-17T07:37:40.812Z,48416.00
2023-05-17T07:38:40.829Z,19200.00
2023-05-17T07:39:40.838Z,47648.00
2023-05-17T07:40:40.853Z,43136.00
2023-05-17T07:41:40.906Z,28416.00
2023-05-17T07:42:40.902Z,40928.00
2023-05-17T07:43:40.917Z,26752.00
2023-05-17T07:44:40.943Z,45216.00
2023-05-17T07:45:40.966Z,42304.00
2023-05-17T07:46:41.014Z,42720.00
2023-05-17T07:47:41.066Z,43072.00
2023-05-17T07:48:41.150Z,45664.00
2023-05-17T07:49:41.049Z,49440.00
2023-05-17T07:50:41.072Z,51808.00
2023-05-17T07:51:41.305Z,36352.00
2023-05-17T07:52:41.118Z,18336.00
2023-05-17T07:53:41.162Z,24416.00
2023-05-17T07:54:41.181Z,13752.00
2023-05-17T07:55:41.237Z,14036.00
2023-05-17T07:56:41.205Z,42048.00
2023-05-17T07:57:41.228Z,48320.00
2023-05-17T07:58:41.252Z,47968.00
2023-05-17T07:59:41.273Z,46624.00
2023-05-17T08:00:41.295Z,45824.00
2023-05-17T08:01:41.320Z,45472.00
2023-05-17T08:02:41.415Z,46528.00
2023-05-17T08:03:41.364Z,46176.00
2023-05-17T08:04:41.429Z,46880.00
2023-05-17T08:05:41.445Z,46592.00
2023-05-17T08:06:41.431Z,46816.00
2023-05-17T08:07:41.470Z,46592.00
2023-05-17T08:08:41.485Z,46944.00
2023-05-17T08:09:41.497Z,47616.00
2023-05-17T08:10:41.520Z,48768.00
2023-05-17T08:11:41.545Z,51712.00
2023-05-17T08:12:41.573Z,50144.00
2023-05-17T08:13:41.601Z,52992.00
2023-05-17T08:14:41.614Z,25472.00
2023-05-17T08:15:41.646Z,34240.00
2023-05-17T08:16:41.662Z,50304.00
2023-05-17T08:17:41.742Z,51168.00
2023-05-17T08:18:41.786Z,50752.00
2023-05-17T08:19:41.828Z,35840.00
2023-05-17T08:20:41.760Z,49888.00
2023-05-17T08:21:41.782Z,49952.00
2023-05-17T08:22:41.797Z,51840.00
2023-05-17T08:23:41.831Z,54976.00
2023-05-17T08:24:41.844Z,56736.00
2023-05-17T08:25:41.866Z,36448.00
2023-05-17T08:26:41.905Z,55488.00
2023-05-17T08:27:41.914Z,52608.00
2023-05-17T08:28:41.938Z,18880.00
2023-05-17T08:29:42.002Z,13316.00
2023-05-17T08:30:42.006Z,11612.00
2023-05-17T08:31:42.006Z,19072.00
2023-05-17T08:32:42.038Z,46688.00
2023-05-17T08:33:42.068Z,46080.00
2023-05-17T08:34:42.072Z,44960.00
2023-05-17T08:35:42.096Z,44832.00
2023-05-17T08:36:42.142Z,44192.00
2023-05-17T08:37:42.141Z,43392.00
2023-05-17T08:38:42.169Z,41760.00
2023-05-17T08:39:42.200Z,41696.00
2023-05-17T08:40:42.211Z,33472.00
2023-05-17T08:41:42.239Z,38816.00
2023-05-17T08:42:42.266Z,36864.00
2023-05-17T08:43:42.279Z,34016.00
2023-05-17T08:44:42.306Z,27328.00
2023-05-17T08:45:42.325Z,17056.00
2023-05-17T08:46:42.347Z,16196.00
2023-05-17T08:47:42.439Z,25664.00
2023-05-17T08:48:42.488Z,33312.00
2023-05-17T08:49:42.415Z,33568.00
2023-05-17T08:50:42.433Z,33472.00
2023-05-17T08:51:42.466Z,25024.00
2023-05-17T08:52:42.558Z,34400.00
2023-05-17T08:53:42.533Z,33312.00
2023-05-17T08:54:42.560Z,33984.00
2023-05-17T08:55:43.665Z,33632.00
2023-05-17T08:56:42.569Z,32992.00
2023-05-17T08:57:42.603Z,33216.00
2023-05-17T08:58:55.619Z,33344.00
2023-05-17T08:59:42.636Z,33728.00
2023-05-17T09:00:42.656Z,33600.00
2023-05-17T09:01:42.679Z,33760.00
2023-05-17T09:02:42.962Z,33888.00
2023-05-17T09:03:42.765Z,33984.00
2023-05-17T09:04:42.871Z,34304.00
2023-05-17T09:05:42.814Z,34592.00
2023-05-17T09:06:42.795Z,34688.00
2023-05-17T09:07:42.820Z,35616.00
2023-05-17T09:08:42.853Z,35872.00
2023-05-17T09:09:42.866Z,36096.00
2023-05-17T09:10:42.894Z,36640.00
2023-05-17T09:11:42.909Z,37504.00
2023-05-17T09:12:42.931Z,38528.00
2023-05-17T09:13:42.956Z,39040.00
2023-05-17T09:14:42.979Z,39488.00
2023-05-17T09:15:43.023Z,39872.00
2023-05-17T09:16:43.025Z,41088.00
2023-05-17T09:17:43.156Z,41184.00
2023-05-17T09:18:43.178Z,42144.00
2023-05-17T09:19:43.304Z,43008.00
2023-05-17T09:20:43.122Z,44256.00
2023-05-17T09:21:43.143Z,45088.00
2023-05-17T09:22:43.169Z,46048.00
2023-05-17T09:23:45.211Z,45632.00
2023-05-17T09:24:43.216Z,32288.00
2023-05-17T09:25:43.251Z,15760.00
2023-05-17T09:26:43.309Z,22560.00
2023-05-17T09:27:43.283Z,44608.00
2023-05-17T09:28:43.319Z,55360.00
2023-05-17T09:29:43.333Z,56288.00
2023-05-17T09:30:43.374Z,57312.00
2023-05-17T09:31:43.388Z,58848.00
2023-05-17T09:32:43.470Z,60768.00
2023-05-17T09:33:43.444Z,61408.00
2023-05-17T09:34:43.452Z,62176.00
2023-05-17T09:35:43.472Z,62176.00
2023-05-17T09:36:43.579Z,62720.00
2023-05-17T09:37:43.520Z,62368.00
2023-05-17T09:38:43.556Z,62752.00
2023-05-17T09:39:43.573Z,62848.00
2023-05-17T09:40:43.602Z,60032.00
2023-05-17T09:41:43.630Z,62336.00
2023-05-17T09:42:43.642Z,61728.00
2023-05-17T09:43:43.667Z,61856.00
2023-05-17T09:44:43.687Z,61280.00
2023-05-17T09:45:43.716Z,60768.00
2023-05-17T09:46:43.742Z,59392.00
2023-05-17T09:47:43.817Z,28512.00
2023-05-17T09:48:43.843Z,43648.00
2023-05-17T09:49:43.812Z,26336.00
2023-05-17T09:50:43.844Z,16992.00
2023-05-17T09:51:43.881Z,21664.00
2023-05-17T09:52:43.890Z,30560.00
2023-05-17T09:53:43.909Z,54848.00
2023-05-17T09:54:43.936Z,64096.00
2023-05-17T09:55:43.959Z,65792.00
2023-05-17T09:56:43.982Z,66624.00
2023-05-17T09:57:44.003Z,66976.00
2023-05-17T09:58:44.040Z,66176.00
2023-05-17T09:59:44.053Z,66240.00
2023-05-17T10:00:44.084Z,66368.00
2023-05-17T10:01:44.118Z,65984.00
2023-05-17T10:02:44.213Z,66400.00
2023-05-17T10:03:44.200Z,66752.00
2023-05-17T10:04:44.213Z,66368.00
2023-05-17T10:05:44.222Z,66368.00
2023-05-17T10:06:48.566Z,67232.00
2023-05-17T10:07:44.256Z,67712.00
2023-05-17T10:08:44.285Z,67360.00
2023-05-17T10:09:44.310Z,66720.00
2023-05-17T10:10:44.338Z,65920.00
2023-05-17T10:11:44.394Z,66208.00
2023-05-17T10:12:44.392Z,66880.00
2023-05-17T10:13:44.421Z,66080.00
2023-05-17T10:14:44.451Z,66816.00
2023-05-17T10:15:44.477Z,66656.00
2023-05-17T10:16:44.501Z,66368.00
2023-05-17T10:17:45.733Z,66912.00
2023-05-17T10:18:44.622Z,67520.00
2023-05-17T10:19:44.761Z,66432.00
2023-05-17T10:20:44.611Z,68768.00
2023-05-17T10:21:44.639Z,70592.00
2023-05-17T10:22:44.671Z,72576.00
2023-05-17T10:23:44.701Z,67872.00
2023-05-17T10:24:44.723Z,67904.00
2023-05-17T10:25:44.749Z,68320.00
2023-05-17T10:26:44.793Z,67552.00
2023-05-17T10:27:44.807Z,70464.00
2023-05-17T10:28:44.856Z,70496.00
2023-05-17T10:29:45.983Z,70752.00
2023-05-17T10:30:44.894Z,61728.00
2023-05-17T10:31:44.925Z,68704.00
2023-05-17T10:32:45.123Z,70144.00
2023-05-17T10:33:45.051Z,65856.00
2023-05-17T10:34:47.512Z,68864.00
2023-05-17T10:35:45.042Z,68448.00
2023-05-17T10:36:45.070Z,68096.00
2023-05-17T10:37:45.100Z,67328.00
2023-05-17T10:38:45.125Z,67616.00
2023-05-17T10:39:45.152Z,67680.00
2023-05-17T10:40:45.187Z,67008.00
2023-05-17T10:41:45.213Z,67392.00
2023-05-17T10:42:45.247Z,68032.00
2023-05-17T10:43:45.270Z,67712.00
2023-05-17T10:44:45.299Z,67616.00
2023-05-17T10:45:45.331Z,67680.00
2023-05-17T10:46:45.364Z,67616.00
2023-05-17T10:47:45.413Z,68480.00
2023-05-17T10:48:45.446Z,68512.00
2023-05-17T10:49:45.447Z,68576.00
2023-05-17T10:50:54.394Z,69344.00
2023-05-17T10:51:45.510Z,71232.00
2023-05-17T10:52:45.537Z,68448.00
2023-05-17T10:53:45.563Z,70528.00
2023-05-17T10:54:45.617Z,68512.00
2023-05-17T10:55:45.622Z,70400.00
2023-05-17T10:56:45.653Z,70496.00
2023-05-17T10:57:50.991Z,70720.00
2023-05-17T10:58:45.708Z,72352.00
2023-05-17T10:59:45.740Z,72096.00
2023-05-17T11:00:45.768Z,70624.00
2023-05-17T11:01:45.819Z,69408.00
2023-05-17T11:02:45.865Z,68224.00
2023-05-17T11:03:45.880Z,67552.00
2023-05-17T11:04:45.973Z,67456.00
2023-05-17T11:05:46.245Z,68256.00
2023-05-17T11:06:46.002Z,70304.00
2023-05-17T11:07:45.988Z,71264.00
2023-05-17T11:08:46.029Z,71808.00
2023-05-17T11:09:46.049Z,71264.00
2023-05-17T11:10:46.080Z,70368.00
2023-05-17T11:11:46.107Z,65344.00
2023-05-17T11:12:46.138Z,52000.00
2023-05-17T11:13:46.170Z,71616.00
2023-05-17T11:14:46.219Z,69344.00
2023-05-17T11:15:46.234Z,68224.00
2023-05-17T11:16:46.260Z,66624.00
2023-05-17T11:17:46.298Z,66528.00
2023-05-17T11:18:46.511Z,66176.00
2023-05-17T11:19:46.489Z,66848.00
2023-05-17T11:20:46.506Z,66976.00
2023-05-17T11:21:46.414Z,66688.00
2023-05-17T11:22:46.447Z,66656.00
2023-05-17T11:23:46.475Z,66368.00
2023-05-17T11:24:46.518Z,66272.00
2023-05-17T11:25:46.537Z,66144.00
2023-05-17T11:26:46.569Z,66656.00
2023-05-17T11:27:46.603Z,66528.00
2023-05-17T11:28:46.637Z,66912.00
2023-05-17T11:29:46.659Z,68992.00
2023-05-17T11:30:46.691Z,68864.00
2023-05-17T11:31:46.716Z,71552.00
2023-05-17T11:32:46.800Z,24000.00
2023-05-17T11:33:46.883Z,69216.00
2023-05-17T11:34:46.815Z,66560.00
2023-05-17T11:35:46.846Z,66112.00
2023-05-17T11:36:46.876Z,65408.00
2023-05-17T11:37:46.906Z,64416.00
2023-05-17T11:38:48.179Z,58208.00
2023-05-17T11:39:46.966Z,66688.00
2023-05-17T11:40:47.029Z,74464.00
2023-05-17T11:41:47.031Z,72000.00
2023-05-17T11:42:47.061Z,32256.00
2023-05-17T11:43:47.091Z,17920.00
2023-05-17T11:44:47.119Z,41184.00
2023-05-17T11:45:47.162Z,14908.00
2023-05-17T11:46:47.183Z,66752.00
2023-05-17T11:47:47.288Z,64800.00
2023-05-17T11:48:47.329Z,64608.00
2023-05-17T11:49:47.271Z,65088.00
2023-05-17T11:50:47.304Z,64192.00
2023-05-17T11:51:47.328Z,64576.00
2023-05-17T11:52:47.358Z,65024.00
2023-05-17T11:53:47.387Z,66112.00
2023-05-17T11:54:47.425Z,18432.00
2023-05-17T11:55:47.447Z,34848.00
2023-05-17T11:56:47.478Z,21664.00
2023-05-17T11:57:47.514Z,64832.00
2023-05-17T11:58:47.537Z,64864.00
2023-05-17T11:59:47.563Z,64320.00
2023-05-17T12:00:47.600Z,63232.00
2023-05-17T12:01:47.621Z,63328.00
2023-05-17T12:02:47.688Z,63264.00
2023-05-17T12:03:47.682Z,20832.00
2023-05-17T12:04:47.733Z,30272.00
2023-05-17T12:05:47.815Z,64704.00
2023-05-17T12:06:47.868Z,63808.00
2023-05-17T12:07:47.796Z,62720.00
2023-05-17T12:08:47.841Z,64224.00
2023-05-17T12:09:47.859Z,64736.00
2023-05-17T12:10:47.892Z,66144.00
2023-05-17T12:11:47.946Z,64192.00